createdAt,value
2023-02-27T00:01:54.681Z,83.78
2023-02-27T00:04:21.164Z,84.46
2023-02-27T00:06:47.588Z,82.73
2023-02-27T00:09:14.017Z,83.07
2023-02-27T00:11:40.543Z,83.59
2023-02-27T00:14:06.981Z,83.80
2023-02-27T00:16:34.299Z,82.61
2023-02-27T00:19:02.366Z,82.69
2023-02-27T00:21:28.983Z,84.02
2023-02-27T00:23:55.565Z,83.85
2023-02-27T00:26:22.255Z,83.68
2023-02-27T00:28:48.750Z,83.40
2023-02-27T00:31:15.384Z,83.72
2023-02-27T00:33:41.877Z,82.81
2023-02-27T00:36:08.394Z,83.62
2023-02-27T00:38:35.546Z,84.04
2023-02-27T00:41:02.804Z,83.38
2023-02-27T00:43:29.467Z,83.34
2023-02-27T00:45:55.914Z,82.41
2023-02-27T00:48:22.435Z,81.89
2023-02-27T00:50:50.676Z,82.82
2023-02-27T00:53:17.167Z,82.48
2023-02-27T00:55:43.662Z,81.95
2023-02-27T00:58:10.087Z,81.97
2023-02-27T01:00:36.593Z,81.42
2023-02-27T01:03:03.822Z,81.90
2023-02-27T01:05:30.377Z,81.68
2023-02-27T01:07:56.835Z,80.98
2023-02-27T01:10:23.444Z,81.77
2023-02-27T01:12:49.830Z,81.68
2023-02-27T01:15:16.566Z,81.68
2023-02-27T01:17:43.180Z,81.95
2023-02-27T01:20:12.259Z,82.35
2023-02-27T01:22:38.731Z,83.16
2023-02-27T01:25:05.681Z,83.42
2023-02-27T01:27:32.232Z,83.41
2023-02-27T01:29:58.781Z,83.78
2023-02-27T01:32:25.339Z,83.77
2023-02-27T01:34:51.794Z,83.39
2023-02-27T01:37:18.870Z,83.51
2023-02-27T01:39:45.263Z,83.26
2023-02-27T01:42:24.374Z,83.29
2023-02-27T01:45:09.557Z,82.65
2023-02-27T01:47:37.774Z,82.84
2023-02-27T01:50:04.527Z,83.21
2023-02-27T01:52:31.784Z,83.07
2023-02-27T01:54:58.793Z,83.45
2023-02-27T01:57:26.665Z,83.27
2023-02-27T01:59:53.804Z,83.90
2023-02-27T02:02:25.438Z,83.86
2023-02-27T02:04:54.185Z,84.41
2023-02-27T02:07:21.343Z,84.17
2023-02-27T02:09:54.673Z,83.34
2023-02-27T02:12:27.751Z,83.33
2023-02-27T02:14:54.401Z,83.56
2023-02-27T02:17:40.324Z,83.09
2023-02-27T02:20:27.357Z,84.60
2023-02-27T02:23:18.756Z,83.95
2023-02-27T02:26:33.200Z,84.06
2023-02-27T02:29:30.763Z,84.92
2023-02-27T02:32:07.681Z,84.80
2023-02-27T02:34:46.769Z,84.85
2023-02-27T02:37:34.275Z,85.21
2023-02-27T02:40:24.547Z,84.54
2023-02-27T02:43:13.743Z,85.16
2023-02-27T02:46:08.206Z,85.06
2023-02-27T02:49:03.142Z,84.78
2023-02-27T02:51:39.324Z,85.19
2023-02-27T02:54:17.128Z,84.93
2023-02-27T02:56:50.442Z,84.58
2023-02-27T02:59:35.564Z,84.94
2023-02-27T03:02:10.704Z,85.69
2023-02-27T03:04:50.464Z,85.22
2023-02-27T03:07:30.289Z,84.99
2023-02-27T03:10:17.866Z,85.00
2023-02-27T03:12:51.615Z,85.11
2023-02-27T03:15:27.134Z,85.53
2023-02-27T03:18:01.310Z,86.53
2023-02-27T03:20:41.475Z,85.94
2023-02-27T03:23:29.726Z,85.66
2023-02-27T03:25:58.282Z,85.61
2023-02-27T03:28:29.085Z,85.59
2023-02-27T03:31:13.634Z,86.84
2023-02-27T03:33:53.675Z,88.02
2023-02-27T03:36:26.370Z,87.83
2023-02-27T03:39:05.599Z,88.35
2023-02-27T03:41:44.890Z,87.87
2023-02-27T03:44:22.294Z,87.03
2023-02-27T03:46:48.830Z,87.32
2023-02-27T03:49:15.404Z,86.99
2023-02-27T03:51:41.897Z,87.37
2023-02-27T03:54:14.758Z,86.71
2023-02-27T03:56:56.271Z,86.81
2023-02-27T03:59:24.435Z,86.02
2023-02-27T04:01:51.973Z,85.50
2023-02-27T04:04:18.748Z,85.57
2023-02-27T04:07:09.369Z,85.11
2023-02-27T04:10:00.726Z,85.41
2023-02-27T04:12:55.170Z,83.64
2023-02-27T04:15:40.323Z,82.09
2023-02-27T04:18:29.590Z,81.72
2023-02-27T04:21:09.338Z,80.45
2023-02-27T04:23:57.892Z,80.62
2023-02-27T04:26:39.939Z,80.70
2023-02-27T04:29:11.195Z,80.72
2023-02-27T04:31:53.300Z,80.95
2023-02-27T04:34:31.915Z,81.67
2023-02-27T04:37:06.556Z,81.70
2023-02-27T04:39:56.414Z,83.56
2023-02-27T04:42:31.127Z,83.20
2023-02-27T04:45:00.985Z,83.39
2023-02-27T04:47:31.770Z,84.32
2023-02-27T04:50:27.398Z,83.68
2023-02-27T04:53:01.955Z,84.34
2023-02-27T04:55:32.459Z,83.99
2023-02-27T04:58:12.743Z,84.52
2023-02-27T05:00:42.899Z,84.66
2023-02-27T05:03:18.335Z,84.66
2023-02-27T05:05:47.240Z,85.04
2023-02-27T05:08:42.065Z,84.68
2023-02-27T05:11:38.347Z,85.64
2023-02-27T05:14:18.280Z,85.25
2023-02-27T05:16:56.738Z,84.68
2023-02-27T05:19:23.615Z,85.49
2023-02-27T05:22:05.266Z,85.99
2023-02-27T05:25:12.279Z,86.55
2023-02-27T05:27:56.083Z,87.22
2023-02-27T05:30:36.082Z,86.22
2023-02-27T05:33:07.337Z,85.63
2023-02-27T05:35:55.000Z,85.48
2023-02-27T05:38:27.939Z,85.99
2023-02-27T05:41:01.211Z,85.00
2023-02-27T05:43:51.532Z,84.70
2023-02-27T05:46:26.485Z,85.43
2023-02-27T05:48:57.946Z,86.10
2023-02-27T05:51:29.929Z,85.06
2023-02-27T05:54:13.731Z,85.84
2023-02-27T05:56:43.479Z,85.52
2023-02-27T05:59:22.402Z,86.13
2023-02-27T06:01:48.866Z,86.44
2023-02-27T06:04:15.375Z,86.24
2023-02-27T06:06:42.101Z,85.83
2023-02-27T06:09:09.526Z,86.96
2023-02-27T06:11:35.992Z,85.90
2023-02-27T06:14:03.342Z,85.91
2023-02-27T06:16:30.303Z,86.58
2023-02-27T06:18:57.057Z,86.49
2023-02-27T06:21:23.608Z,86.23
2023-02-27T06:23:50.060Z,86.45
2023-02-27T06:26:16.544Z,86.72
2023-02-27T06:28:43.150Z,86.91
2023-02-27T06:31:09.631Z,87.35
2023-02-27T06:33:36.108Z,86.27
2023-02-27T06:36:02.714Z,86.16
2023-02-27T06:38:29.235Z,86.62
2023-02-27T06:40:55.659Z,86.55
2023-02-27T06:43:24.740Z,83.97
2023-02-27T06:45:54.690Z,83.63
2023-02-27T06:48:21.347Z,81.53
2023-02-27T06:50:56.227Z,78.67
2023-02-27T06:53:24.318Z,78.16
2023-02-27T06:55:50.942Z,75.97
2023-02-27T06:58:17.983Z,74.55
2023-02-27T07:00:44.594Z,73.28
2023-02-27T07:03:12.523Z,72.29
2023-02-27T07:05:40.143Z,71.88
2023-02-27T07:08:06.588Z,70.00
2023-02-27T07:10:34.076Z,68.72
2023-02-27T07:13:00.459Z,67.13
2023-02-27T07:15:27.085Z,66.11
2023-02-27T07:17:54.459Z,66.16
2023-02-27T07:20:20.888Z,65.18
2023-02-27T07:22:47.379Z,63.93
2023-02-27T07:25:13.836Z,63.96
2023-02-27T07:27:40.248Z,62.60
2023-02-27T07:30:07.466Z,61.60
2023-02-27T07:32:33.865Z,61.64
2023-02-27T07:35:00.339Z,61.48
2023-02-27T07:37:28.232Z,60.29
2023-02-27T07:39:54.725Z,61.26
2023-02-27T07:42:21.190Z,61.53
2023-02-27T07:44:47.668Z,61.99
2023-02-27T07:47:14.121Z,61.20
2023-02-27T07:49:40.563Z,61.11
2023-02-27T07:52:08.293Z,60.07
2023-02-27T07:54:37.494Z,59.61
2023-02-27T07:57:05.025Z,58.08
2023-02-27T07:59:31.531Z,56.95
2023-02-27T08:01:58.271Z,55.03
2023-02-27T08:04:24.863Z,56.48
2023-02-27T08:06:51.300Z,54.87
2023-02-27T08:09:17.848Z,54.16
2023-02-27T08:11:44.279Z,53.37
2023-02-27T08:14:10.817Z,54.64
2023-02-27T08:16:37.554Z,55.79
2023-02-27T08:19:04.101Z,53.21
2023-02-27T08:21:30.719Z,52.75
2023-02-27T08:23:57.438Z,52.25
2023-02-27T08:26:23.911Z,51.54
2023-02-27T08:28:50.725Z,50.93
2023-02-27T08:31:17.187Z,51.29
2023-02-27T08:33:43.948Z,51.93
2023-02-27T08:36:10.523Z,49.73
2023-02-27T08:38:36.979Z,50.86
2023-02-27T08:41:03.638Z,50.46
2023-02-27T08:43:30.049Z,49.03
2023-02-27T08:45:56.535Z,49.98
2023-02-27T08:48:24.831Z,49.60
2023-02-27T08:50:52.197Z,48.90
2023-02-27T08:53:18.729Z,49.88
2023-02-27T08:55:49.878Z,49.92
2023-02-27T08:58:17.200Z,52.73
2023-02-27T09:00:44.731Z,50.63
2023-02-27T09:03:11.377Z,52.26
2023-02-27T09:05:38.547Z,50.03
2023-02-27T09:08:05.533Z,49.95
2023-02-27T09:10:33.041Z,50.45
2023-02-27T09:12:59.754Z,49.96
2023-02-27T09:15:26.421Z,50.57
2023-02-27T09:17:56.352Z,50.24
2023-02-27T09:20:23.012Z,51.98
2023-02-27T09:22:49.550Z,49.90
2023-02-27T09:25:15.995Z,50.39
2023-02-27T09:27:42.434Z,49.91
2023-02-27T09:30:09.655Z,52.02
2023-02-27T09:32:36.121Z,51.47
2023-02-27T09:35:02.579Z,51.86
2023-02-27T09:37:29.086Z,50.28
2023-02-27T09:39:55.480Z,51.33
2023-02-27T09:42:29.387Z,52.08
2023-02-27T09:45:01.939Z,51.92
2023-02-27T09:47:39.643Z,52.23
2023-02-27T09:50:20.036Z,52.36
2023-02-27T09:52:46.460Z,53.34
2023-02-27T09:55:19.030Z,53.73
2023-02-27T09:58:07.862Z,53.88
2023-02-27T10:00:53.394Z,54.41
2023-02-27T10:04:00.405Z,53.61
2023-02-27T10:06:38.851Z,52.90
2023-02-27T10:09:33.679Z,52.18
2023-02-27T10:12:12.951Z,54.02
2023-02-27T10:14:47.717Z,51.16
2023-02-27T10:17:22.298Z,50.27
2023-02-27T10:19:52.064Z,50.40
2023-02-27T10:22:28.843Z,48.95
2023-02-27T10:25:28.727Z,49.75
2023-02-27T10:28:09.019Z,49.33
2023-02-27T10:30:35.743Z,49.64
2023-02-27T10:33:09.959Z,49.19
2023-02-27T10:35:39.884Z,48.49
2023-02-27T10:38:12.879Z,48.23
2023-02-27T10:40:41.725Z,47.56
2023-02-27T10:43:08.420Z,48.79
2023-02-27T10:45:35.945Z,48.03
2023-02-27T10:48:05.360Z,47.45
2023-02-27T10:50:38.167Z,47.22
2023-02-27T10:53:16.970Z,47.05
2023-02-27T10:55:47.834Z,46.62
2023-02-27T10:58:20.690Z,47.35
2023-02-27T11:00:55.995Z,48.41
2023-02-27T11:03:34.116Z,46.89
2023-02-27T11:06:20.544Z,46.69
2023-02-27T11:09:18.657Z,46.62
2023-02-27T11:11:45.081Z,47.02
2023-02-27T11:14:25.089Z,46.73
2023-02-27T11:16:53.767Z,46.83
2023-02-27T11:19:36.681Z,47.14
2023-02-27T11:22:14.121Z,47.83
2023-02-27T11:24:41.348Z,48.63
2023-02-27T11:27:21.984Z,48.19
2023-02-27T11:30:04.082Z,47.38
2023-02-27T11:32:41.150Z,47.99
2023-02-27T11:35:23.113Z,47.58
2023-02-27T11:37:55.230Z,48.45
2023-02-27T11:40:26.561Z,48.55
2023-02-27T11:42:56.812Z,48.41
2023-02-27T11:46:13.569Z,48.74
2023-02-27T11:48:29.349Z,49.57
2023-02-27T11:51:11.037Z,49.47
2023-02-27T11:53:48.170Z,49.70
2023-02-27T11:56:22.227Z,49.89
2023-02-27T11:59:01.498Z,49.44
2023-02-27T12:01:38.843Z,49.37
2023-02-27T12:04:16.614Z,48.96
2023-02-27T12:06:56.262Z,49.04
2023-02-27T12:09:38.955Z,49.09
2023-02-27T12:12:22.223Z,48.77
2023-02-27T12:15:02.561Z,48.55
2023-02-27T12:17:43.545Z,49.17
2023-02-27T12:20:25.092Z,49.34
2023-02-27T12:22:54.144Z,47.95
2023-02-27T12:25:33.553Z,48.23
2023-02-27T12:28:00.116Z,48.38
2023-02-27T12:30:30.439Z,47.71
2023-02-27T12:33:45.302Z,47.96
2023-02-27T12:36:14.067Z,48.80
2023-02-27T12:38:41.235Z,47.25
2023-02-27T12:41:36.603Z,48.52
2023-02-27T12:44:41.920Z,49.25
2023-02-27T12:47:22.583Z,49.03
2023-02-27T12:49:58.916Z,48.33
2023-02-27T12:52:39.300Z,48.43
2023-02-27T12:55:13.300Z,48.34
2023-02-27T12:58:04.636Z,47.66
2023-02-27T13:00:46.321Z,48.24
2023-02-27T13:03:22.079Z,49.74
2023-02-27T13:06:25.297Z,47.06
2023-02-27T13:09:01.097Z,45.80
2023-02-27T13:11:43.702Z,46.04
2023-02-27T13:14:33.904Z,45.90
2023-02-27T13:17:05.158Z,45.24
2023-02-27T13:19:58.184Z,44.44
2023-02-27T13:22:45.908Z,43.31
2023-02-27T13:25:17.631Z,44.62
2023-02-27T13:27:52.002Z,44.07
2023-02-27T13:30:26.856Z,44.65
2023-02-27T13:33:05.975Z,45.63
2023-02-27T13:35:51.206Z,46.93
2023-02-27T13:38:41.791Z,45.21
2023-02-27T13:41:20.418Z,46.99
2023-02-27T13:43:52.411Z,46.76
2023-02-27T13:46:34.702Z,47.01
2023-02-27T13:49:04.175Z,47.01
2023-02-27T13:51:39.945Z,46.67
2023-02-27T13:54:15.968Z,46.93
2023-02-27T13:56:46.449Z,46.14
2023-02-27T13:59:29.047Z,46.51
2023-02-27T14:02:06.970Z,46.88
2023-02-27T14:04:37.021Z,47.14
2023-02-27T14:07:10.768Z,47.38
2023-02-27T14:09:41.056Z,46.68
2023-02-27T14:12:46.887Z,47.37
2023-02-27T14:15:22.556Z,47.95
2023-02-27T14:18:11.476Z,49.21
2023-02-27T14:20:40.457Z,49.04
2023-02-27T14:23:15.861Z,47.55
2023-02-27T14:25:51.307Z,48.63
2023-02-27T14:28:35.950Z,48.35
2023-02-27T14:31:05.717Z,48.45
2023-02-27T14:33:53.991Z,48.28
2023-02-27T14:36:28.183Z,49.21
2023-02-27T14:38:57.517Z,48.67
2023-02-27T14:41:58.650Z,49.37
2023-02-27T14:44:27.941Z,49.27
2023-02-27T14:47:01.704Z,48.41
2023-02-27T14:49:30.719Z,47.96
2023-02-27T14:51:57.535Z,49.65
2023-02-27T14:54:26.258Z,47.96
2023-02-27T14:57:05.202Z,48.01
2023-02-27T14:59:33.288Z,48.06
2023-02-27T15:02:04.500Z,47.34
2023-02-27T15:04:33.034Z,48.13
2023-02-27T15:07:00.532Z,48.90
2023-02-27T15:09:38.364Z,49.89
2023-02-27T15:12:05.149Z,50.64
2023-02-27T15:14:40.057Z,51.14
2023-02-27T15:17:18.103Z,51.35
2023-02-27T15:19:50.488Z,51.66
2023-02-27T15:22:36.178Z,51.57
2023-02-27T15:25:07.581Z,52.08
2023-02-27T15:27:37.088Z,52.48
2023-02-27T15:30:04.714Z,52.61
2023-02-27T15:32:34.339Z,51.81
2023-02-27T15:35:04.812Z,51.04
2023-02-27T15:37:33.940Z,50.18
2023-02-27T15:40:01.401Z,50.46
2023-02-27T15:42:31.202Z,49.89
2023-02-27T15:44:58.500Z,50.73
2023-02-27T15:47:28.362Z,50.71
2023-02-27T15:50:00.182Z,50.04
2023-02-27T15:52:31.630Z,50.17
2023-02-27T15:55:04.219Z,49.69
2023-02-27T15:57:32.494Z,50.28
2023-02-27T16:00:00.757Z,48.77
2023-02-27T16:02:39.911Z,49.53
2023-02-27T16:05:14.324Z,49.77
2023-02-27T16:07:42.857Z,50.42
2023-02-27T16:10:20.220Z,51.84
2023-02-27T16:12:46.639Z,53.70
2023-02-27T16:15:33.007Z,54.67
2023-02-27T16:18:06.700Z,54.93
2023-02-27T16:20:54.759Z,55.43
2023-02-27T16:23:31.999Z,56.11
2023-02-27T16:26:04.529Z,56.86
2023-02-27T16:28:52.611Z,57.22
2023-02-27T16:31:25.754Z,57.32
2023-02-27T16:33:53.849Z,57.17
2023-02-27T16:36:23.376Z,56.56
2023-02-27T16:38:49.869Z,57.04
2023-02-27T16:41:19.200Z,59.87
2023-02-27T16:43:47.054Z,60.95
2023-02-27T16:46:19.939Z,62.35
2023-02-27T16:48:55.085Z,62.93
2023-02-27T16:51:24.935Z,63.97
2023-02-27T16:53:52.822Z,64.53
2023-02-27T16:56:26.192Z,64.45
2023-02-27T16:58:58.919Z,64.64
2023-02-27T17:01:25.355Z,64.92
2023-02-27T17:03:53.093Z,65.52
2023-02-27T17:06:19.559Z,65.72
2023-02-27T17:08:46.058Z,66.50
2023-02-27T17:11:12.508Z,66.90
2023-02-27T17:13:39.446Z,66.45
2023-02-27T17:16:06.529Z,68.29
2023-02-27T17:18:33.221Z,67.93
2023-02-27T17:21:01.472Z,68.62
2023-02-27T17:23:27.859Z,68.26
2023-02-27T17:25:54.764Z,68.78
2023-02-27T17:28:22.554Z,68.73
2023-02-27T17:30:50.317Z,68.91
2023-02-27T17:33:17.117Z,68.79
2023-02-27T17:35:43.575Z,68.70
2023-02-27T17:38:10.006Z,70.06
2023-02-27T17:40:37.713Z,69.99
2023-02-27T17:43:04.231Z,70.39
2023-02-27T17:45:30.713Z,71.07
2023-02-27T17:47:57.355Z,72.09
2023-02-27T17:50:23.788Z,70.98
2023-02-27T17:52:50.317Z,71.13
2023-02-27T17:55:16.915Z,72.10
2023-02-27T17:57:43.496Z,72.33
2023-02-27T18:00:15.780Z,72.45
2023-02-27T18:02:45.069Z,73.07
2023-02-27T18:05:12.667Z,73.48
2023-02-27T18:07:39.683Z,73.03
2023-02-27T18:10:08.967Z,73.86
2023-02-27T18:12:36.629Z,73.40
2023-02-27T18:15:04.190Z,73.39
2023-02-27T18:17:30.754Z,73.71
2023-02-27T18:19:58.030Z,74.55
2023-02-27T18:22:25.773Z,74.34
2023-02-27T18:24:53.951Z,74.09
2023-02-27T18:27:22.184Z,74.27
2023-02-27T18:29:49.460Z,74.49
2023-02-27T18:32:16.277Z,74.36
2023-02-27T18:34:43.452Z,74.41
2023-02-27T18:37:10.851Z,75.17
2023-02-27T18:39:37.512Z,75.52
2023-02-27T18:42:06.452Z,75.43
2023-02-27T18:44:33.160Z,76.10
2023-02-27T18:46:59.649Z,76.66
2023-02-27T18:49:26.107Z,76.64
2023-02-27T18:51:52.563Z,77.24
2023-02-27T18:54:19.032Z,77.45
2023-02-27T18:56:45.541Z,77.47
2023-02-27T18:59:12.080Z,77.28
2023-02-27T19:01:38.940Z,78.17
2023-02-27T19:04:07.766Z,77.96
2023-02-27T19:06:40.428Z,77.72
2023-02-27T19:09:08.723Z,77.28
2023-02-27T19:11:35.728Z,77.42
2023-02-27T19:14:04.151Z,77.29
2023-02-27T19:16:31.458Z,78.41
2023-02-27T19:18:59.424Z,78.56
2023-02-27T19:21:26.868Z,79.38
2023-02-27T19:23:53.352Z,78.91
2023-02-27T19:26:20.615Z,79.39
2023-02-27T19:28:50.815Z,79.92
2023-02-27T19:31:17.549Z,80.21
2023-02-27T19:33:44.053Z,78.83
2023-02-27T19:36:13.621Z,79.25
2023-02-27T19:38:40.753Z,78.65
2023-02-27T19:41:10.847Z,79.78
2023-02-27T19:43:39.129Z,80.38
2023-02-27T19:46:07.092Z,80.08
2023-02-27T19:48:33.808Z,80.64
2023-02-27T19:51:08.176Z,80.88
2023-02-27T19:53:37.302Z,80.96
2023-02-27T19:56:06.399Z,81.03
2023-02-27T19:58:34.086Z,80.75
2023-02-27T20:01:00.844Z,80.97
2023-02-27T20:03:27.408Z,80.73
2023-02-27T20:05:53.859Z,80.14
2023-02-27T20:08:20.973Z,81.34
2023-02-27T20:11:01.720Z,80.06
2023-02-27T20:13:29.114Z,80.38
2023-02-27T20:16:04.493Z,80.57
2023-02-27T20:18:32.087Z,81.26
2023-02-27T20:21:13.637Z,81.04
2023-02-27T20:23:41.761Z,80.46
2023-02-27T20:26:20.435Z,80.67
2023-02-27T20:28:48.878Z,81.14
2023-02-27T20:31:18.881Z,81.02
2023-02-27T20:33:46.420Z,80.39
2023-02-27T20:36:13.984Z,82.48
2023-02-27T20:38:41.426Z,81.83
2023-02-27T20:41:10.547Z,82.14
2023-02-27T20:43:39.887Z,82.13
2023-02-27T20:46:09.139Z,82.28
2023-02-27T20:48:35.706Z,81.66
2023-02-27T20:51:22.822Z,81.05
2023-02-27T20:53:52.726Z,81.18
2023-02-27T20:56:24.372Z,80.36
2023-02-27T20:58:50.951Z,80.71
2023-02-27T21:01:18.277Z,80.62
2023-02-27T21:03:46.840Z,80.38
2023-02-27T21:06:15.225Z,80.00
2023-02-27T21:08:44.894Z,79.67
2023-02-27T21:13:46.823Z,77.96
2023-02-27T21:16:15.202Z,76.79
2023-02-27T21:18:42.526Z,76.48
2023-02-27T21:21:11.819Z,76.29
2023-02-27T21:23:41.229Z,76.86
2023-02-27T21:26:09.529Z,76.64
2023-02-27T21:28:46.695Z,76.43
2023-02-27T21:31:17.992Z,76.94
2023-02-27T21:33:44.515Z,76.91
2023-02-27T21:36:11.563Z,77.26
2023-02-27T21:38:39.093Z,77.36
2023-02-27T21:41:11.807Z,76.94
2023-02-27T21:43:40.430Z,77.79
2023-02-27T21:46:11.820Z,76.77
2023-02-27T21:48:39.556Z,77.17
2023-02-27T21:51:06.582Z,77.29
2023-02-27T21:53:33.900Z,77.30
2023-02-27T21:56:06.514Z,77.48
2023-02-27T21:58:33.539Z,77.50
2023-02-27T22:01:00.469Z,79.21
2023-02-27T22:03:34.299Z,79.10
2023-02-27T22:06:01.807Z,79.36
2023-02-27T22:08:28.635Z,78.76
2023-02-27T22:10:59.329Z,78.37
2023-02-27T22:13:26.518Z,78.99
2023-02-27T22:15:53.850Z,79.21
2023-02-27T22:18:20.628Z,78.18
2023-02-27T22:20:47.049Z,78.31
2023-02-27T22:23:13.535Z,78.72
2023-02-27T22:25:41.000Z,78.95
2023-02-27T22:28:07.425Z,79.38
2023-02-27T22:30:34.316Z,78.68
2023-02-27T22:33:00.728Z,78.87
2023-02-27T22:35:27.148Z,79.50
2023-02-27T22:37:53.639Z,79.70
2023-02-27T22:40:20.459Z,79.94
2023-02-27T22:42:48.025Z,80.95
2023-02-27T22:45:15.228Z,81.24
2023-02-27T22:47:41.680Z,80.81
2023-02-27T22:50:08.872Z,81.09
2023-02-27T22:52:38.396Z,80.98
2023-02-27T22:55:05.283Z,80.31
2023-02-27T22:57:31.721Z,79.91
2023-02-27T22:59:58.131Z,79.55
2023-02-27T23:02:24.583Z,79.67
2023-02-27T23:04:50.980Z,79.57
2023-02-27T23:07:17.624Z,79.98
2023-02-27T23:09:44.154Z,79.67
2023-02-27T23:12:10.598Z,79.40
2023-02-27T23:14:37.007Z,79.33
2023-02-27T23:17:03.395Z,79.35
2023-02-27T23:19:29.877Z,79.18
2023-02-27T23:21:56.350Z,79.76
2023-02-27T23:24:22.753Z,79.65
2023-02-27T23:26:51.548Z,79.16
2023-02-27T23:29:18.578Z,78.74
2023-02-27T23:31:45.202Z,79.47
2023-02-27T23:34:11.709Z,79.17
2023-02-27T23:36:38.609Z,79.54
2023-02-27T23:39:06.486Z,79.58
2023-02-27T23:41:33.386Z,79.79
2023-02-27T23:44:01.440Z,79.88
2023-02-27T23:46:30.376Z,80.36
2023-02-27T23:48:58.804Z,79.92
2023-02-27T23:51:25.426Z,80.39
2023-02-27T23:53:52.564Z,80.96
2023-02-27T23:56:25.141Z,81.38
2023-02-27T23:58:56.550Z,80.70
